createdAt,value
2023-05-19T00:02:29.347Z,0.00
2023-05-19T00:07:29.224Z,0.00
2023-05-19T00:12:29.164Z,0.00
2023-05-19T00:17:29.100Z,0.00
2023-05-19T00:22:29.041Z,0.00
2023-05-19T00:27:28.952Z,0.00
2023-05-19T00:32:28.929Z,0.00
2023-05-19T00:37:28.829Z,0.00
2023-05-19T00:42:28.790Z,0.00
2023-05-19T00:47:28.715Z,0.00
2023-05-19T00:52:28.630Z,0.00
2023-05-19T00:57:28.564Z,0.00
2023-05-19T01:02:28.623Z,0.00
2023-05-19T01:07:28.445Z,0.00
2023-05-19T01:12:28.381Z,0.00
2023-05-19T01:17:28.347Z,0.00
2023-05-19T01:22:28.246Z,0.00
2023-05-19T01:27:28.168Z,0.00
2023-05-19T01:32:28.148Z,0.00
2023-05-19T01:37:28.045Z,0.00
2023-05-19T01:42:28.013Z,0.00
2023-05-19T01:47:27.960Z,0.00
2023-05-19T01:52:27.884Z,0.00
2023-05-19T01:57:27.784Z,0.00
2023-05-19T02:02:27.756Z,0.00
2023-05-19T02:07:27.663Z,0.00
2023-05-19T02:12:27.613Z,0.00
2023-05-19T02:17:27.590Z,0.00
2023-05-19T02:22:27.472Z,0.00
2023-05-19T02:27:27.385Z,0.00
2023-05-19T02:32:27.461Z,0.00
2023-05-19T02:37:27.264Z,0.00
2023-05-19T02:42:27.214Z,0.00
2023-05-19T02:47:27.156Z,4.00
2023-05-19T02:52:27.070Z,8.00
2023-05-19T02:57:27.000Z,8.00
2023-05-19T03:02:27.096Z,16.00
2023-05-19T03:07:26.862Z,28.00
2023-05-19T03:12:26.814Z,44.00
2023-05-19T03:17:26.852Z,64.00
2023-05-19T03:22:26.673Z,92.00
2023-05-19T03:27:26.627Z,132.00
2023-05-19T03:32:26.666Z,184.00
2023-05-19T03:37:26.470Z,252.00
2023-05-19T03:42:26.433Z,344.00
2023-05-19T03:47:26.377Z,456.00
2023-05-19T03:52:26.273Z,540.00
2023-05-19T03:57:26.210Z,620.00
2023-05-19T04:02:26.205Z,708.00
2023-05-19T04:07:26.087Z,876.00
2023-05-19T04:12:26.009Z,1024.00
2023-05-19T04:17:25.973Z,1128.00
2023-05-19T04:22:25.873Z,1292.00
2023-05-19T04:27:25.825Z,1648.00
2023-05-19T04:32:25.812Z,1980.00
2023-05-19T04:37:25.686Z,2136.00
2023-05-19T04:42:25.625Z,2408.00
2023-05-19T04:47:25.587Z,2712.00
2023-05-19T04:52:25.495Z,3328.00
2023-05-19T04:57:25.404Z,4496.00
2023-05-19T05:02:25.448Z,6436.00
2023-05-19T05:07:25.277Z,8096.00
2023-05-19T05:12:25.242Z,8972.00
2023-05-19T05:17:25.168Z,9236.00
2023-05-19T05:22:25.094Z,9720.00
2023-05-19T05:27:25.007Z,9660.00
2023-05-19T05:32:25.069Z,9376.00
2023-05-19T05:37:24.876Z,9932.00
2023-05-19T05:42:24.848Z,9848.00
2023-05-19T05:47:24.752Z,10276.00
2023-05-19T05:52:24.690Z,10724.00
2023-05-19T05:57:24.654Z,11456.00
2023-05-19T06:02:24.638Z,12308.00
2023-05-19T06:07:24.559Z,18816.00
2023-05-19T06:12:24.449Z,23136.00
2023-05-19T06:17:24.396Z,28256.00
2023-05-19T06:22:24.328Z,53536.00
2023-05-19T06:27:24.236Z,47232.00
2023-05-19T06:32:24.231Z,57408.00
2023-05-19T06:37:24.100Z,55008.00
2023-05-19T06:42:24.051Z,19744.00
2023-05-19T06:47:23.989Z,47168.00
2023-05-19T06:52:23.947Z,52096.00
2023-05-19T06:57:23.828Z,66592.00
2023-05-19T07:02:23.835Z,64448.00
2023-05-19T07:07:23.848Z,64480.00
2023-05-19T07:12:23.649Z,66848.00
2023-05-19T07:17:23.852Z,75968.00
2023-05-19T07:22:23.508Z,71904.00
2023-05-19T07:27:23.443Z,76192.00
2023-05-19T07:32:23.614Z,73248.00
2023-05-19T07:37:23.314Z,78560.00
2023-05-19T07:42:23.303Z,94080.00
2023-05-19T07:47:23.172Z,74080.00
2023-05-19T07:52:23.109Z,63680.00
2023-05-19T07:57:23.060Z,70304.00
2023-05-19T08:02:23.008Z,45344.00
2023-05-19T08:07:22.926Z,72000.00
2023-05-19T08:12:22.844Z,80224.00
2023-05-19T08:17:22.858Z,82880.00
2023-05-19T08:22:22.861Z,73088.00
2023-05-19T08:27:22.679Z,72000.00
2023-05-19T08:32:22.672Z,71840.00
2023-05-19T08:37:22.543Z,73312.00
2023-05-19T08:42:22.463Z,72320.00
2023-05-19T08:47:22.434Z,71360.00
2023-05-19T08:52:22.347Z,25696.00
2023-05-19T08:57:22.277Z,59328.00
2023-05-19T09:02:22.232Z,29248.00
2023-05-19T09:07:22.153Z,58848.00
2023-05-19T09:12:22.052Z,28352.00
2023-05-19T09:17:22.081Z,23424.00
2023-05-19T09:22:21.939Z,37440.00
2023-05-19T09:27:21.876Z,35872.00
2023-05-19T09:32:21.850Z,42016.00
2023-05-19T09:37:21.758Z,36896.00
2023-05-19T09:42:21.666Z,29792.00
2023-05-19T09:47:21.661Z,39840.00
2023-05-19T09:52:21.521Z,48896.00
2023-05-19T09:57:21.483Z,72960.00
2023-05-19T10:02:21.392Z,39520.00
2023-05-19T10:07:21.346Z,59552.00
2023-05-19T10:12:21.279Z,61376.00
2023-05-19T10:17:21.206Z,37696.00
2023-05-19T10:22:21.132Z,53344.00
2023-05-19T10:27:21.110Z,48416.00
2023-05-19T10:32:21.091Z,43072.00
2023-05-19T10:37:20.932Z,32416.00
2023-05-19T10:42:20.889Z,42496.00
2023-05-19T10:47:20.865Z,41024.00
2023-05-19T10:52:20.756Z,43136.00
2023-05-19T10:57:20.700Z,30912.00
2023-05-19T11:02:20.675Z,30624.00
2023-05-19T11:07:20.567Z,24416.00
2023-05-19T11:12:20.490Z,36800.00
2023-05-19T11:17:20.429Z,30336.00
2023-05-19T11:22:20.345Z,22656.00
2023-05-19T11:27:20.312Z,25440.00
2023-05-19T11:32:20.294Z,24448.00
2023-05-19T11:37:20.168Z,22176.00
2023-05-19T11:42:20.116Z,25888.00
2023-05-19T11:47:20.015Z,21696.00
2023-05-19T11:52:19.950Z,20672.00
2023-05-19T11:57:19.880Z,18368.00
2023-05-19T12:02:19.880Z,16576.00
2023-05-19T12:07:19.763Z,15404.00
2023-05-19T12:12:19.685Z,13480.00
2023-05-19T12:17:19.619Z,11804.00
2023-05-19T12:22:19.549Z,10480.00
2023-05-19T12:27:19.488Z,9264.00
2023-05-19T12:32:19.399Z,10000.00
2023-05-19T12:37:19.347Z,9336.00
2023-05-19T12:42:19.283Z,9916.00
2023-05-19T12:47:19.209Z,9800.00
2023-05-19T12:52:19.148Z,8868.00
2023-05-19T12:57:19.092Z,8092.00
2023-05-19T13:02:19.058Z,8172.00
2023-05-19T13:07:18.952Z,8284.00
2023-05-19T13:12:18.872Z,8548.00
2023-05-19T13:17:18.813Z,10604.00
2023-05-19T13:22:18.758Z,7324.00
2023-05-19T13:27:18.705Z,8204.00
2023-05-19T13:32:18.656Z,8704.00
2023-05-19T13:37:18.611Z,9132.00
2023-05-19T13:42:18.508Z,7212.00
2023-05-19T13:47:18.581Z,6984.00
2023-05-19T13:52:18.375Z,7016.00
2023-05-19T13:57:18.307Z,6700.00
2023-05-19T14:02:18.246Z,6100.00
2023-05-19T14:07:18.176Z,6548.00
2023-05-19T14:12:18.116Z,6572.00
2023-05-19T14:17:18.072Z,6788.00
2023-05-19T14:22:18.019Z,7152.00
2023-05-19T14:27:17.930Z,8268.00
2023-05-19T14:32:17.863Z,9744.00
2023-05-19T14:37:17.801Z,9756.00
2023-05-19T14:42:17.726Z,11144.00
2023-05-19T14:47:17.675Z,11432.00
2023-05-19T14:52:17.623Z,10828.00
2023-05-19T14:57:17.556Z,10632.00
2023-05-19T15:02:17.487Z,10288.00
2023-05-19T15:07:17.412Z,9728.00
2023-05-19T15:12:17.385Z,9032.00
2023-05-19T15:17:17.339Z,8732.00
2023-05-19T15:22:17.229Z,8428.00
2023-05-19T15:27:17.203Z,7772.00
2023-05-19T15:32:17.090Z,7816.00
2023-05-19T15:37:17.052Z,8104.00
2023-05-19T15:42:16.972Z,7952.00
2023-05-19T15:47:16.946Z,7340.00
2023-05-19T15:52:16.841Z,7604.00
2023-05-19T15:57:16.795Z,7080.00
2023-05-19T16:02:16.838Z,6160.00
2023-05-19T16:07:16.663Z,5688.00
2023-05-19T16:12:16.586Z,5792.00
2023-05-19T16:17:16.529Z,5724.00
2023-05-19T16:22:16.453Z,5812.00
2023-05-19T16:27:16.381Z,5768.00
2023-05-19T16:32:16.316Z,5744.00
2023-05-19T16:37:16.258Z,5584.00
2023-05-19T16:42:16.188Z,5336.00
2023-05-19T16:47:16.128Z,4892.00
2023-05-19T16:52:16.068Z,4832.00
2023-05-19T16:57:15.997Z,4968.00
2023-05-19T17:02:15.922Z,4924.00
2023-05-19T17:07:15.962Z,4456.00
2023-05-19T17:12:15.788Z,3888.00
2023-05-19T17:17:15.787Z,3380.00
2023-05-19T17:22:15.658Z,3168.00
2023-05-19T17:27:15.598Z,3132.00
2023-05-19T17:32:15.562Z,3024.00
2023-05-19T17:37:15.454Z,2576.00
2023-05-19T17:42:15.398Z,2312.00
2023-05-19T17:47:15.340Z,2108.00
2023-05-19T17:52:15.275Z,2040.00
2023-05-19T17:57:15.208Z,1976.00
2023-05-19T18:02:15.265Z,1852.00
2023-05-19T18:07:15.070Z,1680.00
2023-05-19T18:12:14.982Z,1472.00
2023-05-19T18:17:14.950Z,1232.00
2023-05-19T18:22:14.875Z,1016.00
2023-05-19T18:27:14.821Z,828.00
2023-05-19T18:32:14.808Z,668.00
2023-05-19T18:37:14.692Z,536.00
2023-05-19T18:42:14.600Z,412.00
2023-05-19T18:47:14.550Z,288.00
2023-05-19T18:52:14.469Z,208.00
2023-05-19T18:57:14.416Z,144.00
2023-05-19T19:02:14.341Z,100.00
2023-05-19T19:07:14.284Z,64.00
2023-05-19T19:12:14.216Z,36.00
2023-05-19T19:17:14.326Z,20.00
2023-05-19T19:22:14.080Z,8.00
2023-05-19T19:27:14.037Z,4.00
2023-05-19T19:32:13.960Z,0.00
2023-05-19T19:37:13.904Z,0.00
2023-05-19T19:42:13.822Z,0.00
2023-05-19T19:47:13.790Z,0.00
2023-05-19T19:52:13.685Z,0.00
2023-05-19T19:57:13.640Z,0.00
2023-05-19T20:02:13.589Z,0.00
2023-05-19T20:07:13.494Z,0.00
2023-05-19T20:12:13.404Z,0.00
2023-05-19T20:17:13.360Z,0.00
2023-05-19T20:22:13.272Z,0.00
2023-05-19T20:27:13.226Z,0.00
2023-05-19T20:32:13.148Z,0.00
2023-05-19T20:37:13.076Z,0.00
2023-05-19T20:42:13.007Z,0.00
2023-05-19T20:47:12.967Z,0.00
2023-05-19T20:52:12.878Z,0.00
2023-05-19T20:57:12.808Z,0.00
2023-05-19T21:02:12.736Z,0.00
2023-05-19T21:07:12.686Z,0.00
2023-05-19T21:12:12.613Z,0.00
2023-05-19T21:17:12.603Z,0.00
2023-05-19T21:22:12.476Z,0.00
2023-05-19T21:27:12.416Z,0.00
2023-05-19T21:32:12.359Z,0.00
2023-05-19T21:37:12.300Z,0.00
2023-05-19T21:42:12.231Z,0.00
2023-05-19T21:47:12.144Z,0.00
2023-05-19T21:52:12.076Z,0.00
2023-05-19T21:57:12.011Z,0.00
2023-05-19T22:02:12.035Z,0.00
2023-05-19T22:07:11.899Z,0.00
2023-05-19T22:12:11.813Z,0.00
2023-05-19T22:17:11.750Z,0.00
2023-05-19T22:22:14.310Z,0.00
2023-05-19T22:27:11.640Z,0.00
2023-05-19T22:32:11.561Z,0.00
2023-05-19T22:37:11.504Z,0.00
2023-05-19T22:42:11.419Z,0.00
2023-05-19T22:47:11.370Z,0.00
2023-05-19T22:52:11.296Z,0.00
2023-05-19T22:57:11.241Z,0.00
2023-05-19T23:02:11.194Z,0.00
2023-05-19T23:07:11.121Z,0.00
2023-05-19T23:12:11.054Z,0.00
2023-05-19T23:17:11.094Z,0.00
2023-05-19T23:22:11.313Z,0.00
2023-05-19T23:27:10.858Z,0.00
2023-05-19T23:32:10.799Z,0.00
2023-05-19T23:37:10.725Z,0.00
2023-05-19T23:42:10.673Z,0.00
2023-05-19T23:47:10.664Z,0.00
2023-05-19T23:52:10.540Z,0.00
2023-05-19T23:57:10.476Z,0.00
